Hangaard, Minnesota
Current Conditions -  °F | °C
As of 3:55 PM on Friday 28 Nov 2014 (Local Time) from KFSE Reporting Station
Overcast Overcast  
Wind Chill: -16°   Ceiling: 2800
Heat Index: -10°   Visibility: 10mi
Dew Point: -14°   Wind: 7mph
Humidity: 73%   Direction: 120°ESE
Pressure: 29.78"   Gusts: NA
Location:  47.8469°N, 95.4815°W
Report Text: KFSE 282155Z AUTO 12006KT 10SM OVC028 M10/M14 A2978 RMK AO2
Loading
Personal Weather Stations






























Interactive Weather Map New forecast layout! Learn more

10-Day Weather Forecast

Advertisements
Track Severe Weather on mobile